Time;durP1;ratioP1;P1;durP2;ratioP2;P2;SDS_P1;SDS_P2;PMS_P1;PMS_P2;Temp;Humidity;BMP_temperature;BMP_pressure;BME280_temperature;BME280_humidity;BME280_pressure;Samples;Min_cycle;Max_cycle;Signal;HPM_P1;HPM_P2
2023/05/22 00:02:59;;;;;;;5.95;4.50;;;;;;;;;;10294901;28;20072;-70
2023/05/22 00:07:58;;;;;;;6.10;4.28;;;;;;;;;;10296331;28;20064;-70
2023/05/22 00:12:56;;;;;;;5.38;3.65;;;;;;;;;;10294755;28;20536;-70
2023/05/22 00:17:54;;;;;;;5.57;3.95;;;;;;;;;;10296346;28;20071;-71
2023/05/22 00:22:55;;;;;;;4.68;3.60;;;;;;;;;;10295337;28;20091;-71
2023/05/22 00:27:54;;;;;;;5.25;3.47;;;;;;;;;;10298185;28;20068;-70
2023/05/22 00:32:52;;;;;;;5.78;3.97;;;;;;;;;;10300682;28;20040;-70
2023/05/22 00:37:50;;;;;;;5.03;3.92;;;;;;;;;;10296460;28;20076;-70
2023/05/22 00:42:50;;;;;;;4.18;3.85;;;;;;;;;;10292631;28;20490;-70
2023/05/22 00:47:48;;;;;;;4.97;4.38;;;;;;;;;;10300374;28;20478;-70
2023/05/22 00:52:47;;;;;;;6.75;4.10;;;;;;;;;;10302923;28;20051;-70
2023/05/22 00:57:45;;;;;;;7.38;4.68;;;;;;;;;;10299766;28;20067;-70
2023/05/22 01:02:45;;;;;;;5.55;4.07;;;;;;;;;;10296911;28;20061;-71
2023/05/22 01:07:43;;;;;;;4.65;3.67;;;;;;;;;;10295634;28;20530;-71
2023/05/22 01:12:45;;;;;;;4.93;3.90;;;;;;;;;;10300002;28;20068;-71
2023/05/22 01:17:48;;;;;;;9.98;4.75;;;;;;;;;;10298634;28;20181;-70
2023/05/22 01:23:10;;;;;;;4.65;4.07;;;;;;;;;;10294041;28;20068;-70
2023/05/22 01:28:17;;;;;;;4.72;4.00;;;;;;;;;;10292881;28;20073;-70
2023/05/22 01:33:18;;;;;;;4.05;3.75;;;;;;;;;;10289456;28;20083;-70
2023/05/22 01:38:16;;;;;;;4.28;3.67;;;;;;;;;;10300665;28;20072;-70
2023/05/22 01:43:15;;;;;;;8.55;4.45;;;;;;;;;;10296319;28;20076;-69
2023/05/22 01:48:16;;;;;;;4.30;3.90;;;;;;;;;;10296453;28;20068;-70
2023/05/22 01:53:19;;;;;;;5.00;4.50;;;;;;;;;;10295842;28;20068;-70
2023/05/22 01:58:21;;;;;;;4.88;4.25;;;;;;;;;;10294641;28;20072;-70
2023/05/22 02:03:22;;;;;;;6.30;4.47;;;;;;;;;;10310889;28;20085;-71
2023/05/22 02:08:21;;;;;;;5.07;3.90;;;;;;;;;;10306813;28;20072;-70
2023/05/22 02:13:20;;;;;;;4.90;3.92;;;;;;;;;;10308380;28;20881;-70
2023/05/22 02:18:18;;;;;;;4.88;4.38;;;;;;;;;;10308701;28;20106;-70
2023/05/22 02:23:18;;;;;;;4.38;3.97;;;;;;;;;;10300777;28;20076;-70
2023/05/22 02:28:16;;;;;;;6.15;4.30;;;;;;;;;;10304593;28;20072;-70
2023/05/22 02:33:17;;;;;;;5.50;4.07;;;;;;;;;;10307689;28;20283;-70
2023/05/22 02:38:15;;;;;;;6.20;3.90;;;;;;;;;;10304455;28;20084;-70
2023/05/22 02:43:16;;;;;;;4.45;3.90;;;;;;;;;;10307871;28;20072;-70
2023/05/22 02:48:15;;;;;;;4.90;4.07;;;;;;;;;;10297032;28;20080;-70
2023/05/22 02:53:14;;;;;;;8.38;3.90;;;;;;;;;;10303937;28;20270;-70
2023/05/22 02:58:13;;;;;;;5.43;3.63;;;;;;;;;;10296240;28;20067;-70
2023/05/22 03:03:12;;;;;;;5.43;3.90;;;;;;;;;;10301681;28;20120;-70
2023/05/22 03:08:14;;;;;;;6.95;3.97;;;;;;;;;;10293951;28;20072;-70
2023/05/22 03:13:12;;;;;;;5.47;4.35;;;;;;;;;;10297988;28;20471;-70
2023/05/22 03:18:10;;;;;;;6.10;4.15;;;;;;;;;;10297259;28;20087;-69
2023/05/22 03:23:12;;;;;;;5.25;4.15;;;;;;;;;;10298985;28;20076;-71
2023/05/22 03:28:10;;;;;;;6.00;3.95;;;;;;;;;;10297908;28;20423;-71
2023/05/22 03:33:11;;;;;;;5.00;4.38;;;;;;;;;;10305502;28;20083;-71
2023/05/22 03:38:10;;;;;;;5.70;4.55;;;;;;;;;;10307310;28;20087;-70
2023/05/22 03:43:09;;;;;;;4.78;4.32;;;;;;;;;;10299985;28;20068;-71
2023/05/22 03:48:09;;;;;;;6.30;4.55;;;;;;;;;;10304629;28;20102;-70
2023/05/22 03:53:08;;;;;;;9.15;4.53;;;;;;;;;;10302343;28;20074;-71
2023/05/22 03:58:07;;;;;;;5.22;4.03;;;;;;;;;;10305680;28;20072;-72
2023/05/22 04:03:11;;;;;;;10.60;8.60;;;;;;;;;;10301858;28;20060;-76
2023/05/22 04:08:10;;;;;;;16.15;12.77;;;;;;;;;;10299214;28;20072;-77
2023/05/22 04:13:08;;;;;;;6.68;4.95;;;;;;;;;;10298749;28;20064;-77
2023/05/22 04:18:08;;;;;;;7.45;5.47;;;;;;;;;;10297487;28;20094;-77
2023/05/22 04:23:07;;;;;;;5.45;4.47;;;;;;;;;;10308409;28;20076;-70
2023/05/22 04:28:08;;;;;;;10.68;4.38;;;;;;;;;;10299507;28;20072;-71
2023/05/22 04:33:07;;;;;;;5.65;4.40;;;;;;;;;;10299080;28;20072;-70
2023/05/22 04:38:06;;;;;;;6.57;5.00;;;;;;;;;;10294948;28;20068;-70
2023/05/22 04:43:04;;;;;;;8.55;5.00;;;;;;;;;;10297336;28;20068;-70
2023/05/22 04:48:02;;;;;;;8.98;5.28;;;;;;;;;;10292352;28;20080;-70
2023/05/22 04:53:06;;;;;;;5.28;4.78;;;;;;;;;;10294609;28;20190;-70
2023/05/22 04:58:05;;;;;;;11.10;6.05;;;;;;;;;;10307037;28;20634;-71
2023/05/22 05:03:06;;;;;;;13.82;6.40;;;;;;;;;;10287192;28;20076;-71
2023/05/22 05:08:06;;;;;;;11.85;6.25;;;;;;;;;;10290034;28;20063;-69
2023/05/22 05:13:05;;;;;;;7.38;6.68;;;;;;;;;;10297516;28;20075;-69
2023/05/22 05:18:07;;;;;;;8.20;6.13;;;;;;;;;;10314091;28;20147;-70
2023/05/22 05:23:09;;;;;;;8.77;6.75;;;;;;;;;;10301480;28;20536;-69
2023/05/22 05:28:10;;;;;;;10.57;6.32;;;;;;;;;;10299179;28;20076;-68
2023/05/22 05:33:10;;;;;;;14.27;7.53;;;;;;;;;;10297848;28;20085;-68
2023/05/22 05:38:25;;;;;;;8.40;7.00;;;;;;;;;;10302230;28;20470;-69
2023/05/22 05:43:25;;;;;;;7.40;6.68;;;;;;;;;;10303183;28;20077;-69
2023/05/22 05:48:27;;;;;;;12.63;7.32;;;;;;;;;;10316564;28;20079;-70
2023/05/22 05:53:28;;;;;;;15.23;7.03;;;;;;;;;;10305896;28;20513;-69
2023/05/22 05:58:28;;;;;;;12.27;6.85;;;;;;;;;;10303257;28;20088;-71
2023/05/22 06:03:47;;;;;;;7.88;6.22;;;;;;;;;;10302759;28;20080;-70
2023/05/22 06:08:55;;;;;;;7.03;6.13;;;;;;;;;;10304378;28;20095;-70
2023/05/22 06:14:01;;;;;;;10.27;6.80;;;;;;;;;;10303106;28;20529;-69
2023/05/22 06:19:00;;;;;;;9.98;5.47;;;;;;;;;;10317671;28;20080;-70
2023/05/22 06:24:00;;;;;;;6.53;5.53;;;;;;;;;;10303623;28;20068;-70
2023/05/22 06:29:00;;;;;;;5.22;4.60;;;;;;;;;;10292856;28;20490;-70
2023/05/22 06:34:00;;;;;;;8.40;4.88;;;;;;;;;;10301564;28;20064;-70
2023/05/22 06:39:01;;;;;;;11.00;4.22;;;;;;;;;;10290736;28;20080;-71
2023/05/22 06:44:24;;;;;;;10.00;8.82;;;;;;;;;;10292658;28;20694;-77
2023/05/22 06:49:25;;;;;;;10.07;4.95;;;;;;;;;;10287924;28;20087;-77
2023/05/22 06:54:28;;;;;;;9.15;5.53;;;;;;;;;;10296871;28;20076;-77
2023/05/22 06:59:27;;;;;;;12.80;5.50;;;;;;;;;;10301587;28;20470;-77
2023/05/22 07:04:53;;;;;;;8.48;5.00;;;;;;;;;;10299847;28;20073;-71
2023/05/22 07:10:01;;;;;;;8.50;4.97;;;;;;;;;;10304596;28;20084;-69
2023/05/22 07:15:00;;;;;;;15.05;5.28;;;;;;;;;;10312285;28;20080;-70
2023/05/22 07:20:00;;;;;;;10.88;4.93;;;;;;;;;;10292769;28;20096;-70
2023/05/22 07:25:02;;;;;;;9.38;4.95;;;;;;;;;;10297988;28;20049;-70
2023/05/22 07:30:03;;;;;;;7.28;5.53;;;;;;;;;;10296152;28;20049;-70
2023/05/22 07:35:03;;;;;;;9.50;5.78;;;;;;;;;;10297503;28;20072;-70
2023/05/22 07:40:05;;;;;;;10.77;5.45;;;;;;;;;;10297605;28;20075;-70
2023/05/22 07:45:03;;;;;;;11.82;6.03;;;;;;;;;;10298513;28;20065;-71
2023/05/22 07:50:03;;;;;;;7.85;5.00;;;;;;;;;;10298545;28;20076;-71
2023/05/22 07:55:08;;;;;;;11.68;5.57;;;;;;;;;;10296778;28;20045;-69
2023/05/22 08:00:12;;;;;;;8.80;5.57;;;;;;;;;;10296654;28;20518;-69
2023/05/22 08:05:11;;;;;;;7.03;4.80;;;;;;;;;;10302729;28;20528;-70
2023/05/22 08:10:15;;;;;;;8.88;5.18;;;;;;;;;;10297383;28;20084;-68
2023/05/22 08:15:14;;;;;;;8.85;4.75;;;;;;;;;;10291062;28;20502;-70
2023/05/22 08:20:15;;;;;;;12.68;5.65;;;;;;;;;;10296315;28;20072;-72
2023/05/22 08:25:18;;;;;;;15.32;5.55;;;;;;;;;;10297841;28;20072;-70
2023/05/22 08:30:17;;;;;;;14.75;5.63;;;;;;;;;;10295721;28;20079;-67
2023/05/22 08:35:16;;;;;;;9.18;5.35;;;;;;;;;;10298502;28;20068;-68
2023/05/22 08:40:14;;;;;;;9.80;5.07;;;;;;;;;;10293509;28;20077;-69
2023/05/22 08:45:18;;;;;;;5.65;4.95;;;;;;;;;;10296355;28;20071;-70
2023/05/22 08:50:22;;;;;;;9.65;5.13;;;;;;;;;;10292683;28;20147;-68
2023/05/22 08:55:20;;;;;;;9.20;6.95;;;;;;;;;;10295719;28;20063;-68
2023/05/22 09:00:21;;;;;;;15.45;7.47;;;;;;;;;;10296174;28;20064;-68
2023/05/22 09:05:20;;;;;;;14.77;7.60;;;;;;;;;;10295448;28;20069;-68
2023/05/22 09:10:18;;;;;;;7.60;5.75;;;;;;;;;;10295713;28;20072;-68
2023/05/22 09:15:19;;;;;;;7.53;6.60;;;;;;;;;;10295113;28;20491;-67
2023/05/22 09:20:18;;;;;;;19.52;10.27;;;;;;;;;;10295422;28;20096;-68
2023/05/22 09:25:18;;;;;;;10.95;6.90;;;;;;;;;;10297722;28;20060;-68
2023/05/22 09:30:17;;;;;;;22.80;5.47;;;;;;;;;;10296194;28;20064;-68
2023/05/22 09:35:16;;;;;;;5.10;4.60;;;;;;;;;;10295126;28;20060;-69
2023/05/22 09:40:15;;;;;;;7.47;4.72;;;;;;;;;;10295009;28;20095;-68
2023/05/22 09:45:13;;;;;;;4.97;4.13;;;;;;;;;;10295629;28;20092;-68
2023/05/22 09:50:12;;;;;;;5.35;3.67;;;;;;;;;;10291820;28;20080;-68
2023/05/22 09:55:10;;;;;;;9.68;4.93;;;;;;;;;;10295269;28;20072;-69
2023/05/22 10:00:13;;;;;;;11.77;5.05;;;;;;;;;;10294636;28;20086;-68
2023/05/22 10:05:14;;;;;;;5.87;4.97;;;;;;;;;;10298870;28;20084;-67
2023/05/22 10:10:13;;;;;;;12.30;4.18;;;;;;;;;;10292178;28;20083;-67
2023/05/22 10:15:13;;;;;;;10.40;4.88;;;;;;;;;;10291629;28;20135;-68
2023/05/22 10:20:12;;;;;;;10.48;6.35;;;;;;;;;;10289516;22;20101;-71
2023/05/22 10:25:10;;;;;;;8.77;5.18;;;;;;;;;;10207599;28;20065;-71
2023/05/22 10:30:16;;;;;;;9.93;4.63;;;;;;;;;;10212797;28;20140;-70
2023/05/22 10:35:40;;;;;;;9.60;5.43;;;;;;;;;;10214089;28;20089;-70
2023/05/22 10:40:39;;;;;;;10.50;5.18;;;;;;;;;;10212780;28;20121;-70
2023/05/22 10:45:37;;;;;;;11.52;7.30;;;;;;;;;;10215244;28;20058;-70
2023/05/22 10:50:37;;;;;;;6.10;4.63;;;;;;;;;;10213299;28;20077;-71
2023/05/22 10:55:47;;;;;;;9.85;5.05;;;;;;;;;;10213968;28;20080;-70
2023/05/22 11:00:46;;;;;;;8.27;5.50;;;;;;;;;;10213867;28;20492;-70
2023/05/22 11:05:52;;;;;;;8.02;6.80;;;;;;;;;;10211278;28;20472;-70
2023/05/22 11:10:54;;;;;;;6.43;4.47;;;;;;;;;;10212979;28;20815;-71
2023/05/22 11:15:54;;;;;;;9.70;4.85;;;;;;;;;;10213833;28;20073;-71
2023/05/22 11:20:55;;;;;;;6.25;4.95;;;;;;;;;;10212572;28;20085;-71
2023/05/22 11:25:53;;;;;;;6.40;4.22;;;;;;;;;;10211776;28;20076;-70
2023/05/22 11:30:51;;;;;;;6.93;4.57;;;;;;;;;;10222705;28;20500;-70
2023/05/22 11:35:52;;;;;;;8.40;4.82;;;;;;;;;;10211931;28;20081;-70
2023/05/22 11:40:53;;;;;;;11.35;5.32;;;;;;;;;;10210378;28;20545;-71
2023/05/22 11:45:51;;;;;;;7.82;4.93;;;;;;;;;;10210958;28;20460;-71
2023/05/22 11:50:49;;;;;;;7.95;5.30;;;;;;;;;;10207707;28;20084;-70
2023/05/22 11:55:57;;;;;;;9.65;5.18;;;;;;;;;;10206891;28;20099;-72
2023/05/22 12:01:01;;;;;;;9.10;5.03;;;;;;;;;;10208337;28;20069;-73
2023/05/22 12:06:00;;;;;;;11.27;7.03;;;;;;;;;;10211267;28;20519;-75
2023/05/22 12:11:01;;;;;;;9.95;6.13;;;;;;;;;;10209422;28;20069;-73
2023/05/22 12:16:00;;;;;;;7.40;5.32;;;;;;;;;;10208280;28;20461;-73
2023/05/22 12:20:59;;;;;;;10.32;4.15;;;;;;;;;;10206909;28;20092;-69
2023/05/22 12:26:00;;;;;;;6.07;3.97;;;;;;;;;;10210200;28;20072;-68
2023/05/22 12:30:58;;;;;;;4.40;3.63;;;;;;;;;;10209354;28;20073;-69
2023/05/22 12:35:58;;;;;;;7.40;4.35;;;;;;;;;;10208679;28;20507;-69
2023/05/22 12:41:01;;;;;;;8.02;3.55;;;;;;;;;;10210533;28;20487;-69
2023/05/22 12:46:01;;;;;;;8.77;3.90;;;;;;;;;;10209555;28;20084;-69
2023/05/22 12:51:01;;;;;;;6.95;4.55;;;;;;;;;;10208420;28;20085;-69
2023/05/22 12:55:59;;;;;;;8.35;4.35;;;;;;;;;;10208417;28;20065;-69
2023/05/22 13:01:00;;;;;;;7.63;4.70;;;;;;;;;;10204702;28;20074;-69
2023/05/22 13:05:59;;;;;;;5.97;3.53;;;;;;;;;;10205863;28;20073;-69
2023/05/22 13:11:00;;;;;;;6.65;4.25;;;;;;;;;;10209038;28;20454;-67
2023/05/22 13:15:59;;;;;;;5.82;4.03;;;;;;;;;;10208183;28;20518;-68
2023/05/22 13:20:58;;;;;;;12.68;4.30;;;;;;;;;;10209886;28;20077;-68
2023/05/22 13:25:57;;;;;;;5.65;3.63;;;;;;;;;;10208602;28;20083;-68
2023/05/22 13:30:56;;;;;;;12.13;4.20;;;;;;;;;;10209153;28;20276;-68
2023/05/22 13:35:54;;;;;;;4.93;3.90;;;;;;;;;;10208822;28;20074;-69
2023/05/22 13:40:53;;;;;;;6.00;3.70;;;;;;;;;;10208450;28;20553;-68
2023/05/22 13:45:54;;;;;;;7.50;5.00;;;;;;;;;;10207752;28;20077;-69
2023/05/22 13:50:53;;;;;;;6.85;3.92;;;;;;;;;;10236815;28;20076;-68
2023/05/22 13:55:54;;;;;;;9.52;4.10;;;;;;;;;;10287161;28;20073;-68
2023/05/22 14:00:52;;;;;;;8.20;4.75;;;;;;;;;;10288781;28;20068;-68
2023/05/22 14:05:50;;;;;;;8.10;3.45;;;;;;;;;;10292111;28;20071;-68
2023/05/22 14:10:52;;;;;;;6.45;3.80;;;;;;;;;;10296721;28;20073;-68
2023/05/22 14:15:51;;;;;;;4.75;3.78;;;;;;;;;;10295849;28;20156;-68
2023/05/22 14:20:53;;;;;;;6.93;4.47;;;;;;;;;;10306765;28;20599;-68
2023/05/22 14:25:55;;;;;;;11.65;3.70;;;;;;;;;;10307730;28;20080;-68
2023/05/22 14:31:08;;;;;;;6.40;3.17;;;;;;;;;;10307593;28;20116;-67
2023/05/22 14:36:10;;;;;;;5.85;3.15;;;;;;;;;;10306720;28;20681;-68
2023/05/22 14:41:09;;;;;;;10.35;4.20;;;;;;;;;;10306726;28;20081;-68
2023/05/22 14:46:10;;;;;;;6.05;3.53;;;;;;;;;;10296973;28;20080;-68
2023/05/22 14:51:08;;;;;;;9.77;3.75;;;;;;;;;;10290688;28;20092;-68
2023/05/22 14:56:09;;;;;;;5.60;3.45;;;;;;;;;;10294021;28;20099;-68
2023/05/22 15:01:09;;;;;;;5.03;3.40;;;;;;;;;;10294926;28;20077;-68
2023/05/22 15:06:07;;;;;;;9.82;4.43;;;;;;;;;;10294629;28;20083;-68
2023/05/22 15:11:08;;;;;;;5.75;3.75;;;;;;;;;;10293877;28;20075;-68
2023/05/22 15:16:21;;;;;;;5.85;3.35;;;;;;;;;;10291347;28;20068;-68
2023/05/22 15:21:19;;;;;;;16.27;3.90;;;;;;;;;;10294135;28;20455;-67
2023/05/22 15:26:20;;;;;;;7.03;4.10;;;;;;;;;;10292914;28;20060;-68
2023/05/22 15:31:19;;;;;;;5.40;4.03;;;;;;;;;;10294648;28;20083;-68
2023/05/22 15:36:20;;;;;;;10.43;4.30;;;;;;;;;;10288731;28;20075;-68
2023/05/22 15:41:19;;;;;;;7.22;4.10;;;;;;;;;;10293213;28;20087;-67
2023/05/22 15:46:17;;;;;;;8.40;3.95;;;;;;;;;;10292489;28;20079;-67
2023/05/22 15:51:16;;;;;;;4.80;4.10;;;;;;;;;;10287007;28;20076;-70
2023/05/22 15:56:16;;;;;;;5.63;4.03;;;;;;;;;;10292932;28;20069;-68
2023/05/22 16:01:14;;;;;;;7.82;3.95;;;;;;;;;;10292920;28;20072;-67
2023/05/22 16:06:14;;;;;;;5.32;4.13;;;;;;;;;;10292129;28;20083;-67
2023/05/22 16:11:14;;;;;;;4.65;3.83;;;;;;;;;;10291650;28;20065;-67
2023/05/22 16:16:12;;;;;;;5.85;4.40;;;;;;;;;;10290214;28;20068;-67
2023/05/22 16:21:13;;;;;;;11.43;4.35;;;;;;;;;;10288907;28;20072;-67
2023/05/22 16:26:11;;;;;;;6.43;4.07;;;;;;;;;;10289762;28;20068;-67
2023/05/22 16:31:14;;;;;;;5.53;3.88;;;;;;;;;;10290494;28;20524;-68
2023/05/22 16:36:15;;;;;;;4.55;3.60;;;;;;;;;;10291170;28;20056;-67
2023/05/22 16:41:14;;;;;;;7.10;3.65;;;;;;;;;;10291639;28;20072;-67
2023/05/22 16:46:13;;;;;;;6.28;3.85;;;;;;;;;;10290987;28;20083;-67
2023/05/22 16:51:15;;;;;;;6.57;3.83;;;;;;;;;;10289334;28;20072;-67
2023/05/22 16:56:15;;;;;;;7.60;4.57;;;;;;;;;;10289577;28;20049;-68
2023/05/22 17:01:15;;;;;;;7.53;5.07;;;;;;;;;;10290071;28;20080;-68
2023/05/22 17:06:13;;;;;;;8.35;4.15;;;;;;;;;;10290608;28;20059;-68
2023/05/22 17:11:11;;;;;;;7.47;4.53;;;;;;;;;;10289473;28;20075;-68
2023/05/22 17:16:14;;;;;;;4.90;4.40;;;;;;;;;;10291630;28;20064;-69
2023/05/22 17:21:16;;;;;;;7.22;4.93;;;;;;;;;;10287915;28;20084;-69
2023/05/22 17:26:14;;;;;;;9.30;4.45;;;;;;;;;;10291050;28;20557;-70
2023/05/22 17:31:12;;;;;;;10.07;5.47;;;;;;;;;;10290062;28;20064;-70
2023/05/22 17:36:12;;;;;;;10.00;5.60;;;;;;;;;;10289410;28;20083;-69
2023/05/22 17:41:11;;;;;;;26.13;12.07;;;;;;;;;;10298900;28;20588;-70
2023/05/22 17:46:09;;;;;;;8.98;3.95;;;;;;;;;;10296846;28;20075;-68
2023/05/22 17:51:18;;;;;;;5.57;4.25;;;;;;;;;;10292787;28;20127;-68
2023/05/22 17:56:21;;;;;;;7.07;4.70;;;;;;;;;;10295613;28;20478;-68
2023/05/22 18:01:23;;;;;;;10.90;4.87;;;;;;;;;;10296945;28;20072;-68
2023/05/22 18:06:21;;;;;;;6.32;3.88;;;;;;;;;;10297294;28;20061;-68
2023/05/22 18:11:22;;;;;;;6.35;4.82;;;;;;;;;;10298226;28;20060;-68
2023/05/22 18:16:21;;;;;;;6.35;4.63;;;;;;;;;;10302629;28;20080;-66
2023/05/22 18:21:19;;;;;;;8.15;4.00;;;;;;;;;;10307878;28;20522;-68
2023/05/22 18:26:17;;;;;;;5.50;4.95;;;;;;;;;;10303588;28;20060;-67
2023/05/22 18:31:17;;;;;;;8.20;7.00;;;;;;;;;;10305929;28;20099;-67
2023/05/22 18:36:15;;;;;;;8.60;7.47;;;;;;;;;;10303309;28;20497;-66
2023/05/22 18:41:14;;;;;;;12.48;11.18;;;;;;;;;;10298497;28;20099;-66
2023/05/22 18:46:12;;;;;;;6.22;5.20;;;;;;;;;;10305168;28;20080;-67
2023/05/22 18:51:12;;;;;;;7.68;5.47;;;;;;;;;;10302657;28;20132;-67
2023/05/22 18:56:10;;;;;;;7.05;4.22;;;;;;;;;;10300034;28;20064;-68
2023/05/22 19:01:18;;;;;;;6.28;4.13;;;;;;;;;;10311890;28;20509;-66
2023/05/22 19:06:18;;;;;;;4.50;4.10;;;;;;;;;;10296804;28;20091;-68
2023/05/22 19:11:16;;;;;;;5.90;4.25;;;;;;;;;;10300808;28;20079;-67
2023/05/22 19:16:18;;;;;;;7.53;4.10;;;;;;;;;;10303791;28;20464;-68
2023/05/22 19:21:20;;;;;;;7.35;4.70;;;;;;;;;;10302769;28;20083;-69
2023/05/22 19:26:18;;;;;;;9.43;4.57;;;;;;;;;;10300247;28;20083;-68
2023/05/22 19:31:17;;;;;;;8.82;4.35;;;;;;;;;;10301426;28;20464;-67
2023/05/22 19:36:15;;;;;;;4.00;3.60;;;;;;;;;;10298404;28;20077;-67
2023/05/22 19:41:15;;;;;;;6.55;4.22;;;;;;;;;;10300146;28;20094;-67
2023/05/22 19:46:13;;;;;;;7.30;4.18;;;;;;;;;;10296904;28;20063;-68
2023/05/22 19:51:11;;;;;;;3.80;3.35;;;;;;;;;;10300672;28;20083;-67
2023/05/22 19:56:14;;;;;;;6.38;4.18;;;;;;;;;;10300203;28;20072;-67
2023/05/22 20:01:18;;;;;;;7.30;5.03;;;;;;;;;;10297236;28;20075;-69
2023/05/22 20:06:33;;;;;;;5.70;4.10;;;;;;;;;;10290288;28;20469;-67
2023/05/22 20:11:40;;;;;;;6.03;4.25;;;;;;;;;;10309621;28;20505;-67
2023/05/22 20:16:41;;;;;;;7.00;4.20;;;;;;;;;;10299479;28;20103;-67
2023/05/22 20:27:19;;;;;;;8.70;4.20;;;;;;;;;;10057243;28;20078;-67
2023/05/22 20:32:20;;;;;;;5.25;4.53;;;;;;;;;;10101379;28;20082;-66
2023/05/22 20:37:19;;;;;;;4.65;4.20;;;;;;;;;;10099616;28;20066;-67
2023/05/22 20:42:23;;;;;;;5.88;4.30;;;;;;;;;;10093980;28;20074;-66
2023/05/22 20:47:21;;;;;;;5.25;4.28;;;;;;;;;;10093447;28;20134;-67
2023/05/22 20:52:19;;;;;;;7.55;4.43;;;;;;;;;;10094076;28;20067;-66
2023/05/22 20:57:22;;;;;;;5.63;4.65;;;;;;;;;;10094757;28;20614;-67
2023/05/22 21:02:20;;;;;;;8.32;4.20;;;;;;;;;;10098620;28;20084;-68
2023/05/22 21:07:18;;;;;;;6.95;4.50;;;;;;;;;;10098385;28;20490;-67
2023/05/22 21:12:19;;;;;;;7.15;4.90;;;;;;;;;;10096461;28;20066;-67
2023/05/22 21:17:28;;;;;;;7.32;4.63;;;;;;;;;;10091973;28;20066;-67
2023/05/22 21:22:26;;;;;;;6.10;4.43;;;;;;;;;;10055484;28;20086;-68
2023/05/22 21:27:24;;;;;;;9.98;4.63;;;;;;;;;;10092626;28;20073;-68
2023/05/22 21:32:24;;;;;;;5.85;4.40;;;;;;;;;;10093754;28;20089;-67
2023/05/22 21:37:22;;;;;;;5.25;4.05;;;;;;;;;;10095612;28;20070;-67
2023/05/22 21:42:20;;;;;;;5.72;4.13;;;;;;;;;;10095427;28;20089;-67
2023/05/22 21:47:19;;;;;;;7.00;4.00;;;;;;;;;;10094505;28;20059;-68
2023/05/22 21:52:23;;;;;;;8.80;4.65;;;;;;;;;;10095933;28;20066;-68
2023/05/22 21:57:27;;;;;;;8.25;4.70;;;;;;;;;;10095900;28;20094;-67
2023/05/22 22:02:25;;;;;;;5.03;4.25;;;;;;;;;;10098462;28;20532;-67
2023/05/22 22:07:25;;;;;;;5.55;4.53;;;;;;;;;;10100116;28;20085;-67
2023/05/22 22:12:26;;;;;;;7.05;4.78;;;;;;;;;;10094100;28;20473;-67
2023/05/22 22:17:25;;;;;;;7.10;4.53;;;;;;;;;;10095126;28;20079;-67
2023/05/22 22:22:25;;;;;;;6.32;4.75;;;;;;;;;;10097900;28;20513;-68
2023/05/22 22:27:24;;;;;;;5.68;4.53;;;;;;;;;;10101170;28;20082;-67
2023/05/22 22:32:26;;;;;;;13.23;4.97;;;;;;;;;;10101201;28;20070;-68
2023/05/22 22:37:30;;;;;;;7.30;4.28;;;;;;;;;;10101403;28;20468;-67
2023/05/22 22:42:31;;;;;;;4.88;4.38;;;;;;;;;;10101047;28;20071;-67
2023/05/22 22:47:32;;;;;;;10.63;5.00;;;;;;;;;;10100664;28;20086;-67
2023/05/22 22:52:33;;;;;;;6.53;5.13;;;;;;;;;;10100687;28;20078;-66
2023/05/22 22:57:32;;;;;;;5.72;4.95;;;;;;;;;;10101111;28;20488;-67
2023/05/22 23:02:30;;;;;;;6.25;5.20;;;;;;;;;;10100027;28;20075;-67
2023/05/22 23:07:28;;;;;;;6.70;5.22;;;;;;;;;;10099166;28;20066;-67
2023/05/22 23:12:28;;;;;;;5.90;4.70;;;;;;;;;;10098833;28;20082;-67
2023/05/22 23:17:26;;;;;;;9.95;5.85;;;;;;;;;;10097038;28;20070;-66
2023/05/22 23:22:24;;;;;;;6.40;5.78;;;;;;;;;;10099091;28;20089;-67
2023/05/22 23:27:22;;;;;;;5.80;5.30;;;;;;;;;;10100797;28;20061;-67
2023/05/22 23:32:22;;;;;;;7.60;5.57;;;;;;;;;;10099713;28;20074;-68
2023/05/22 23:37:20;;;;;;;7.13;5.45;;;;;;;;;;10098172;28;20456;-67
2023/05/22 23:42:18;;;;;;;7.57;6.30;;;;;;;;;;10100362;28;20062;-66
2023/05/22 23:47:17;;;;;;;7.63;5.35;;;;;;;;;;10098473;28;20063;-67
2023/05/22 23:52:17;;;;;;;8.75;5.85;;;;;;;;;;10099419;28;20062;-66
2023/05/22 23:57:15;;;;;;;5.85;5.07;;;;;;;;;;10098749;28;20058;-67
